Pagrindinis puslapis
METAR-TAF:

METAR-TAF

Oro uostai :

Bolcanas, Italija

platuma: 46-28N, ilguma: 011-20E, Aukštis: 262 m

Dabartinis oras

Ataskaita buvo paskelbta 22 minutes, ne 06:50 UTC
Vėjas 3 kt iš Pietvakarių
Temperatūra 18°C
Drėgmė 83%
Slėgis 1006 hPa
Matomumas 10 km arba daugiau
Mažai debesys ne aukštis 3000 ft
Išsisklaidę debesys ne aukštis 7000 ft
Su prošvaistėmis ne aukštis 10000 ft

METAR: LIPB 070650Z 22003KT 9999 FEW030 SCT070 BKN100 18/15 Q1006 RERA

Laikas: 09:12 (07:12 UTC)

Prognozė

Ataskaita buvo paskelbta 2 valandos ir 12 minutes, ne 05:00 UTC
Prognozė galioja nuo 07 metu 06 UTC su 08 metu 06 UTC
Vėjas 6 kt nuo kintamojo kryptimis
Matomumas 10 km arba daugiau
Su prošvaistėmis ne aukštis 4000 ft
Laikinai
nuo 07 metu 06 UTC su 07 metu 12 UTC
lietus
Laikinai
nuo 07 metu 12 UTC su 07 metu 18 UTC
Matomumas: 4000 m
perkūnija, lietus
Laikinai
nuo 07 metu 22 UTC su 08 metu 06 UTC
lietus

TAF: LIPB 070500Z 0706/0806 VRB06KT 9999 BKN040 TEMPO 0706/0712 RA TEMPO 0712/0718 4000 TSRA TEMPO 0722/0806 RA

Orai ataskaitas ir orų prognozės (METAR, TAF).

turimą stotys yra geltonos ir raudonos taškus žemėlapyje.

Perkelti pele per norėdami pamatyti stoties vardą.

Tada spustelėkite, norėdami matyti oro stebėjimo ir prognozės.

Norėdami pakeisti žemėlapį: spustelėkite ant žalios mygtukų su juodo kryžiaus žemyn,; žalią mygtuką su brūkšneliu, jei norite nutolinti; arba žalių rodyklių gretimoms žemėlapius.


METAR-TAF: